createdAt,value
2022-08-18T00:01:34.947Z,15.77
2022-08-18T00:04:03.623Z,16.67
2022-08-18T00:06:30.825Z,15.73
2022-08-18T00:08:59.408Z,14.77
2022-08-18T00:11:26.757Z,16.03
2022-08-18T00:13:53.253Z,15.17
2022-08-18T00:16:19.785Z,15.20
2022-08-18T00:18:46.253Z,15.97
2022-08-18T00:21:12.782Z,14.90
2022-08-18T00:23:39.301Z,17.00
2022-08-18T00:26:06.079Z,15.77
2022-08-18T00:28:32.579Z,15.03
2022-08-18T00:30:59.066Z,15.37
2022-08-18T00:33:25.740Z,15.70
2022-08-18T00:35:52.282Z,15.93
2022-08-18T00:38:24.590Z,15.97
2022-08-18T00:40:53.172Z,15.10
2022-08-18T00:43:27.855Z,14.23
2022-08-18T00:45:54.452Z,16.27
2022-08-18T00:48:21.085Z,14.80
2022-08-18T00:50:57.370Z,16.60
2022-08-18T00:53:47.828Z,14.30
2022-08-18T00:56:24.847Z,11.93
2022-08-18T00:58:55.616Z,13.40
2022-08-18T01:01:23.627Z,14.50
2022-08-18T01:03:54.459Z,15.70
2022-08-18T01:06:33.512Z,14.40
2022-08-18T01:09:00.221Z,17.10
2022-08-18T01:11:28.209Z,15.00
2022-08-18T01:13:54.737Z,16.40
2022-08-18T01:16:53.809Z,14.63
2022-08-18T01:19:42.358Z,15.23
2022-08-18T01:22:17.747Z,16.40
2022-08-18T01:25:02.887Z,14.07
2022-08-18T01:27:32.023Z,15.23
2022-08-18T01:30:05.326Z,13.87
2022-08-18T01:32:31.820Z,15.27
2022-08-18T01:34:58.719Z,15.57
2022-08-18T01:37:25.588Z,15.73
2022-08-18T01:41:25.599Z,15.03
2022-08-18T01:42:39.975Z,14.87
2022-08-18T01:45:08.074Z,20.13
2022-08-18T01:47:47.363Z,13.63
2022-08-18T01:50:15.182Z,17.77
2022-08-18T01:52:41.680Z,17.03
2022-08-18T01:55:08.577Z,13.70
2022-08-18T01:57:45.086Z,15.87
2022-08-18T02:00:16.954Z,11.53
2022-08-18T02:02:43.574Z,11.30
2022-08-18T02:05:13.511Z,14.97
2022-08-18T02:07:40.242Z,10.50
2022-08-18T02:10:12.195Z,8.97
2022-08-18T02:12:42.424Z,8.83
2022-08-18T02:15:09.312Z,9.47
2022-08-18T02:17:41.535Z,8.27
2022-08-18T02:20:10.287Z,8.07
2022-08-18T02:22:37.866Z,7.90
2022-08-18T02:25:05.206Z,9.60
2022-08-18T02:27:34.256Z,7.63
2022-08-18T02:30:02.177Z,8.27
2022-08-18T02:32:29.492Z,9.83
2022-08-18T02:34:56.257Z,7.53
2022-08-18T02:37:23.057Z,8.73
2022-08-18T02:39:49.846Z,7.93
2022-08-18T02:42:16.566Z,7.30
2022-08-18T02:44:43.278Z,9.03
2022-08-18T02:47:09.946Z,8.20
2022-08-18T02:49:36.980Z,10.37
2022-08-18T02:52:04.179Z,7.97
2022-08-18T02:54:30.863Z,8.10
2022-08-18T02:56:57.577Z,8.23
2022-08-18T02:59:27.588Z,9.00
2022-08-18T03:01:55.933Z,7.83
2022-08-18T03:04:29.559Z,7.73
2022-08-18T03:06:58.404Z,8.30
2022-08-18T03:09:25.691Z,8.33
2022-08-18T03:11:53.510Z,10.00
2022-08-18T03:14:20.141Z,9.57
2022-08-18T03:16:54.180Z,11.10
2022-08-18T03:19:23.727Z,9.30
2022-08-18T03:21:50.283Z,11.03
2022-08-18T03:24:22.650Z,10.17
2022-08-18T03:26:50.689Z,9.10
2022-08-18T03:29:17.191Z,12.03
2022-08-18T03:31:45.500Z,9.37
2022-08-18T03:34:12.414Z,10.27
2022-08-18T03:36:39.649Z,11.27
2022-08-18T03:39:09.140Z,10.50
2022-08-18T03:41:57.495Z,9.67
2022-08-18T03:44:25.531Z,8.87
2022-08-18T03:46:52.214Z,8.27
2022-08-18T03:49:20.381Z,7.03
2022-08-18T03:51:47.196Z,7.47
2022-08-18T03:54:16.448Z,9.40
2022-08-18T03:56:44.805Z,8.73
2022-08-18T03:59:18.029Z,11.03
2022-08-18T04:01:46.267Z,8.70
2022-08-18T04:04:17.530Z,13.30
2022-08-18T04:06:54.460Z,10.60
2022-08-18T04:09:22.949Z,11.67
2022-08-18T04:11:49.727Z,11.43
2022-08-18T04:14:24.133Z,10.13
2022-08-18T04:16:51.232Z,10.03
2022-08-18T04:19:26.614Z,9.47
2022-08-18T04:21:56.240Z,10.37
2022-08-18T04:24:22.829Z,10.10
2022-08-18T04:26:50.075Z,9.87
2022-08-18T04:29:18.345Z,9.23
2022-08-18T04:31:45.157Z,9.50
2022-08-18T04:34:12.464Z,7.93
2022-08-18T04:36:39.427Z,10.20
2022-08-18T04:39:08.213Z,8.07
2022-08-18T04:41:36.377Z,8.57
2022-08-18T04:44:08.591Z,8.40
2022-08-18T04:46:43.781Z,9.03
2022-08-18T04:49:11.990Z,8.00
2022-08-18T04:52:37.140Z,9.83
2022-08-18T04:54:28.552Z,10.37
2022-08-18T04:56:55.183Z,8.97
2022-08-18T04:59:21.731Z,10.73
2022-08-18T05:01:48.483Z,8.00
2022-08-18T05:04:17.424Z,8.00
2022-08-18T05:06:44.821Z,8.43
2022-08-18T05:09:12.807Z,8.03
2022-08-18T05:11:44.609Z,8.33
2022-08-18T05:14:11.504Z,9.23
2022-08-18T05:16:47.832Z,8.73
2022-08-18T05:19:23.369Z,9.23
2022-08-18T05:22:02.994Z,9.20
2022-08-18T05:24:37.316Z,9.80
2022-08-18T05:27:04.737Z,9.17
2022-08-18T05:29:41.532Z,9.30
2022-08-18T05:32:12.126Z,11.23
2022-08-18T05:34:59.808Z,10.93
2022-08-18T05:37:54.354Z,10.73
2022-08-18T05:40:24.407Z,9.17
2022-08-18T05:42:51.369Z,9.40
2022-08-18T05:45:19.141Z,9.77
2022-08-18T05:47:45.828Z,8.63
2022-08-18T05:50:17.240Z,7.40
2022-08-18T05:52:54.143Z,11.70
2022-08-18T05:55:58.173Z,9.30
2022-08-18T05:58:33.635Z,9.17
2022-08-18T06:01:08.867Z,8.60
2022-08-18T06:03:46.178Z,11.37
2022-08-18T06:06:18.678Z,9.30
2022-08-18T06:08:48.421Z,8.13
2022-08-18T06:11:17.388Z,10.90
2022-08-18T06:13:49.858Z,9.20
2022-08-18T06:16:48.941Z,9.40
2022-08-18T06:19:25.217Z,9.27
2022-08-18T06:22:00.521Z,9.43
2022-08-18T06:24:37.606Z,9.27
2022-08-18T06:27:22.209Z,8.83
2022-08-18T06:30:04.866Z,8.80
2022-08-18T06:32:31.299Z,8.50
2022-08-18T06:35:19.547Z,9.27
2022-08-18T06:38:23.469Z,10.73
2022-08-18T06:40:57.406Z,10.93
2022-08-18T06:43:23.899Z,9.63
2022-08-18T06:45:52.296Z,11.17
2022-08-18T06:48:35.431Z,10.13
2022-08-18T06:51:03.494Z,10.80
2022-08-18T06:53:59.665Z,10.80
2022-08-18T06:56:39.809Z,10.50
2022-08-18T06:59:21.543Z,10.23
2022-08-18T07:01:54.723Z,10.60
2022-08-18T07:04:39.625Z,9.97
2022-08-18T07:07:18.741Z,10.13
2022-08-18T07:09:45.391Z,10.50
2022-08-18T07:12:19.689Z,9.60
2022-08-18T07:14:50.435Z,11.17
2022-08-18T07:17:43.112Z,13.20
2022-08-18T07:20:24.356Z,10.37
2022-08-18T07:22:59.649Z,10.00
2022-08-18T07:25:32.546Z,9.87
2022-08-18T07:28:01.860Z,10.00
2022-08-18T07:30:36.089Z,10.47
2022-08-18T07:33:19.880Z,9.80
2022-08-18T07:35:49.526Z,10.43
2022-08-18T07:38:43.574Z,10.13
2022-08-18T07:41:20.568Z,9.17
2022-08-18T07:43:51.695Z,9.20
2022-08-18T07:46:50.477Z,8.90
2022-08-18T07:49:22.326Z,9.90
2022-08-18T07:51:57.193Z,9.87
2022-08-18T07:54:49.513Z,8.57
2022-08-18T07:57:25.824Z,9.43
2022-08-18T08:00:04.636Z,9.77
2022-08-18T08:02:54.897Z,9.23
2022-08-18T08:05:33.933Z,9.43
2022-08-18T08:08:06.229Z,9.60
2022-08-18T08:10:43.528Z,8.40
2022-08-18T08:14:01.249Z,9.17
2022-08-18T08:16:49.814Z,9.00
2022-08-18T08:19:59.093Z,9.07
2022-08-18T08:22:29.951Z,10.47
2022-08-18T08:25:44.706Z,12.20
2022-08-18T08:28:09.572Z,9.10
2022-08-18T08:30:49.384Z,15.70
2022-08-18T08:33:28.938Z,30.10
2022-08-18T08:36:08.336Z,32.23
2022-08-18T08:38:47.669Z,10.73
2022-08-18T08:41:20.026Z,41.33
2022-08-18T08:43:56.870Z,15.40
2022-08-18T08:46:26.207Z,10.87
2022-08-18T08:49:22.954Z,9.73
2022-08-18T08:51:57.934Z,11.23
2022-08-18T08:54:36.418Z,11.20
2022-08-18T08:57:04.203Z,9.70
2022-08-18T08:59:30.918Z,11.40
2022-08-18T09:02:46.885Z,12.40
2022-08-18T09:05:12.132Z,12.20
2022-08-18T09:08:06.989Z,13.90
2022-08-18T09:10:53.703Z,13.83
2022-08-18T09:13:47.106Z,12.80
2022-08-18T09:16:34.193Z,12.23
2022-08-18T09:19:19.159Z,11.63
2022-08-18T09:22:01.514Z,13.50
2022-08-18T09:24:31.959Z,13.53
2022-08-18T09:27:05.672Z,14.73
2022-08-18T09:29:44.245Z,14.17
2022-08-18T09:32:20.122Z,14.20
2022-08-18T09:35:20.179Z,14.20
2022-08-18T09:38:12.320Z,14.30
2022-08-18T09:41:13.286Z,16.60
2022-08-18T09:44:21.351Z,18.20
2022-08-18T09:46:55.905Z,16.73
2022-08-18T09:49:22.541Z,17.80
2022-08-18T09:51:51.160Z,19.50
2022-08-18T09:54:25.174Z,19.10
2022-08-18T09:56:54.560Z,20.47
2022-08-18T09:59:35.080Z,20.20
2022-08-18T10:02:20.344Z,21.97
2022-08-18T10:05:16.773Z,24.20
2022-08-18T10:07:44.260Z,23.47
2022-08-18T10:11:01.537Z,22.50
2022-08-18T10:13:29.729Z,23.00
2022-08-18T10:16:26.052Z,22.47
2022-08-18T10:19:00.729Z,25.07
2022-08-18T10:21:31.271Z,26.90
2022-08-18T10:24:31.799Z,26.37
2022-08-18T10:26:54.229Z,26.53
2022-08-18T10:29:24.865Z,25.53
2022-08-18T10:31:57.796Z,26.03
2022-08-18T10:34:28.174Z,22.87
2022-08-18T10:36:59.512Z,23.50
2022-08-18T10:39:41.290Z,24.63
2022-08-18T10:42:30.977Z,24.60
2022-08-18T10:45:12.623Z,22.00
2022-08-18T10:47:42.762Z,22.97
2022-08-18T10:50:22.605Z,24.23
2022-08-18T10:53:24.104Z,24.47
2022-08-18T10:55:51.709Z,23.57
2022-08-18T10:58:30.391Z,23.57
2022-08-18T11:01:05.996Z,24.40
2022-08-18T11:03:51.603Z,23.43
2022-08-18T11:06:25.924Z,26.50
2022-08-18T11:09:01.587Z,23.47
2022-08-18T11:11:38.994Z,24.83
2022-08-18T11:14:37.351Z,27.03
2022-08-18T11:17:26.866Z,24.13
2022-08-18T11:19:54.108Z,25.77
2022-08-18T11:22:31.369Z,25.23
2022-08-18T11:25:04.299Z,24.40
2022-08-18T11:27:39.782Z,25.03
2022-08-18T11:30:07.606Z,25.63
2022-08-18T11:35:32.823Z,26.60
2022-08-18T11:38:03.538Z,27.70
2022-08-18T11:43:41.374Z,26.97
2022-08-18T11:46:24.942Z,28.07
2022-08-18T11:48:54.884Z,26.47
2022-08-18T11:51:28.562Z,27.87
2022-08-18T11:54:00.165Z,31.73
2022-08-18T11:56:38.116Z,31.73
2022-08-18T11:59:07.914Z,30.73
2022-08-18T12:01:42.190Z,30.83
2022-08-18T12:04:22.095Z,31.40
2022-08-18T12:07:04.420Z,32.80
2022-08-18T12:10:17.440Z,29.90
2022-08-18T12:12:28.394Z,31.30
2022-08-18T12:15:01.078Z,27.10
2022-08-18T12:17:33.205Z,27.60
2022-08-18T12:20:02.305Z,28.97
2022-08-18T12:22:33.830Z,29.77
2022-08-18T12:25:03.603Z,31.50
2022-08-18T12:27:39.746Z,31.40
2022-08-18T12:30:08.187Z,30.90
2022-08-18T12:32:56.092Z,30.07
2022-08-18T12:35:28.325Z,28.93
2022-08-18T12:38:00.372Z,26.37
2022-08-18T12:40:31.867Z,28.50
2022-08-18T12:42:58.422Z,26.93
2022-08-18T12:45:27.115Z,27.37
2022-08-18T12:47:54.492Z,24.10
2022-08-18T12:50:21.064Z,26.90
2022-08-18T12:52:58.728Z,26.17
2022-08-18T12:55:25.915Z,27.97
2022-08-18T12:57:53.825Z,25.87
2022-08-18T13:00:21.317Z,27.57
2022-08-18T13:02:55.867Z,25.17
2022-08-18T13:05:27.637Z,25.53
2022-08-18T13:08:03.991Z,22.93
2022-08-18T13:10:42.952Z,22.13
2022-08-18T13:13:12.098Z,22.27
2022-08-18T13:15:38.736Z,22.77
2022-08-18T13:18:14.383Z,21.90
2022-08-18T13:20:42.323Z,22.33
2022-08-18T13:23:12.032Z,26.00
2022-08-18T13:25:39.884Z,23.77
2022-08-18T13:28:06.720Z,23.80
2022-08-18T13:30:33.361Z,23.83
2022-08-18T13:33:06.012Z,24.17
2022-08-18T13:35:52.408Z,27.00
2022-08-18T13:38:26.084Z,26.93
2022-08-18T13:40:56.577Z,23.67
2022-08-18T13:43:30.197Z,19.47
2022-08-18T13:45:56.698Z,21.47
2022-08-18T13:48:26.817Z,22.37
2022-08-18T13:50:55.700Z,25.80
2022-08-18T13:53:23.721Z,24.07
2022-08-18T13:55:51.584Z,23.07
2022-08-18T13:58:20.797Z,22.87
2022-08-18T14:00:52.382Z,24.40
2022-08-18T14:03:42.216Z,25.03
2022-08-18T14:06:09.589Z,21.40
2022-08-18T14:08:40.349Z,20.17
2022-08-18T14:11:07.118Z,18.90
2022-08-18T14:13:43.529Z,18.97
2022-08-18T14:16:11.105Z,18.33
2022-08-18T14:19:05.202Z,18.57
2022-08-18T14:22:04.575Z,18.97
2022-08-18T14:24:51.600Z,19.27
2022-08-18T14:27:19.731Z,19.47
2022-08-18T14:29:48.898Z,20.60
2022-08-18T14:32:28.446Z,18.63
2022-08-18T14:35:33.506Z,21.60
2022-08-18T14:37:48.557Z,16.73
2022-08-18T14:40:15.636Z,17.80
2022-08-18T14:42:54.093Z,18.20
2022-08-18T14:45:28.111Z,18.60
2022-08-18T14:48:06.604Z,19.93
2022-08-18T14:50:35.208Z,18.00
2022-08-18T14:53:01.996Z,20.57
2022-08-18T14:55:28.488Z,17.43
2022-08-18T14:57:59.466Z,18.33
2022-08-18T15:00:27.342Z,17.50
2022-08-18T15:02:54.373Z,17.13
2022-08-18T15:05:24.337Z,16.97
2022-08-18T15:07:52.191Z,15.13
2022-08-18T15:10:23.418Z,14.37
2022-08-18T15:12:54.397Z,14.00
2022-08-18T15:15:22.533Z,15.93
2022-08-18T15:17:52.490Z,16.33
2022-08-18T15:20:23.882Z,17.03
2022-08-18T15:23:14.716Z,18.67
2022-08-18T15:25:45.085Z,15.67
2022-08-18T15:28:16.401Z,14.53
2022-08-18T15:30:51.138Z,14.70
2022-08-18T15:33:23.532Z,13.70
2022-08-18T15:35:53.594Z,15.27
2022-08-18T15:38:21.897Z,17.30
2022-08-18T15:40:57.198Z,16.70
2022-08-18T15:43:25.465Z,15.30
2022-08-18T15:45:59.138Z,16.10
2022-08-18T15:48:27.209Z,17.07
2022-08-18T15:50:54.789Z,15.27
2022-08-18T15:53:29.908Z,14.17
2022-08-18T15:55:57.904Z,12.03
2022-08-18T15:58:26.973Z,12.87
2022-08-18T16:00:56.270Z,11.70
2022-08-18T16:03:25.462Z,13.17
2022-08-18T16:05:54.222Z,14.67
2022-08-18T16:08:24.829Z,13.30
2022-08-18T16:10:52.958Z,14.40
2022-08-18T16:13:20.028Z,12.57
2022-08-18T16:15:48.432Z,13.73
2022-08-18T16:18:17.192Z,13.60
2022-08-18T16:20:44.662Z,13.43
2022-08-18T16:23:15.550Z,14.03
2022-08-18T16:25:43.293Z,12.73
2022-08-18T16:28:10.739Z,14.00
2022-08-18T16:30:37.436Z,12.13
2022-08-18T16:33:06.500Z,12.30
2022-08-18T16:35:35.171Z,12.70
2022-08-18T16:38:04.544Z,11.87
2022-08-18T16:40:31.092Z,12.60
2022-08-18T16:43:00.605Z,12.07
2022-08-18T16:45:28.277Z,12.23
2022-08-18T16:47:55.299Z,12.27
2022-08-18T16:50:23.504Z,12.50
2022-08-18T16:52:50.173Z,11.17
2022-08-18T16:55:17.061Z,11.70
2022-08-18T16:58:03.259Z,12.50
2022-08-18T17:00:55.312Z,13.03
2022-08-18T17:03:42.572Z,11.60
2022-08-18T17:06:12.144Z,11.83
2022-08-18T17:08:40.750Z,12.73
2022-08-18T17:11:10.757Z,13.00
2022-08-18T17:13:39.679Z,14.30
2022-08-18T17:16:07.437Z,12.93
2022-08-18T17:18:34.093Z,12.83
2022-08-18T17:21:05.092Z,12.87
2022-08-18T17:23:32.415Z,12.90
2022-08-18T17:25:59.249Z,13.20
2022-08-18T17:28:39.501Z,12.60
2022-08-18T17:31:11.380Z,13.37
2022-08-18T17:33:40.815Z,12.63
2022-08-18T17:36:15.226Z,12.77
2022-08-18T17:38:49.408Z,15.40
2022-08-18T17:41:20.966Z,13.40
2022-08-18T17:43:47.926Z,13.13
2022-08-18T17:46:25.999Z,12.40
2022-08-18T17:48:57.243Z,11.23
2022-08-18T17:51:35.379Z,12.83
2022-08-18T17:54:27.956Z,14.20
2022-08-18T17:57:01.840Z,13.77
2022-08-18T17:59:45.267Z,14.10
2022-08-18T18:02:29.194Z,15.40
2022-08-18T18:04:58.743Z,14.57
2022-08-18T18:07:27.917Z,17.40
2022-08-18T18:10:03.597Z,16.60
2022-08-18T18:12:31.906Z,17.67
2022-08-18T18:14:59.592Z,18.10
2022-08-18T18:17:37.565Z,17.77
2022-08-18T18:20:37.978Z,16.30
2022-08-18T18:23:19.376Z,18.40
2022-08-18T18:25:46.094Z,18.23
2022-08-18T18:28:31.988Z,18.90
2022-08-18T18:31:00.910Z,18.00
2022-08-18T18:33:30.107Z,18.57
2022-08-18T18:35:59.815Z,18.47
2022-08-18T18:38:33.230Z,17.07
2022-08-18T18:41:03.890Z,17.60
2022-08-18T18:43:34.581Z,16.73
2022-08-18T18:46:07.981Z,15.40
2022-08-18T18:49:04.969Z,16.73
2022-08-18T18:51:38.632Z,16.50
2022-08-18T18:54:59.718Z,16.33
2022-08-18T18:57:38.149Z,16.03
2022-08-18T19:00:43.931Z,16.50
2022-08-18T19:03:24.867Z,16.80
2022-08-18T19:06:22.447Z,16.60
2022-08-18T19:09:08.667Z,16.53
2022-08-18T19:12:20.392Z,16.87
2022-08-18T19:15:09.021Z,16.40
2022-08-18T19:17:40.536Z,17.33
2022-08-18T19:20:12.753Z,20.70
2022-08-18T19:22:59.180Z,19.93
2022-08-18T19:25:30.102Z,18.80
2022-08-18T19:28:28.522Z,19.30
2022-08-18T19:30:57.524Z,19.73
2022-08-18T19:33:28.592Z,21.63
2022-08-18T19:36:23.445Z,20.60
2022-08-18T19:39:17.580Z,20.63
2022-08-18T19:41:49.689Z,21.87
2022-08-18T19:44:37.529Z,22.03
2022-08-18T19:47:20.668Z,22.90
2022-08-18T19:50:16.278Z,23.13
2022-08-18T19:53:04.969Z,22.40
2022-08-18T19:55:35.422Z,21.50
2022-08-18T19:58:21.936Z,23.17
2022-08-18T20:00:57.772Z,21.43
2022-08-18T20:03:56.540Z,21.17
2022-08-18T20:06:49.950Z,22.83
2022-08-18T20:09:39.423Z,19.97
2022-08-18T20:12:25.393Z,21.43
2022-08-18T20:15:00.948Z,21.47
2022-08-18T20:17:29.037Z,20.03
2022-08-18T20:19:57.395Z,20.73
2022-08-18T20:22:24.435Z,21.03
2022-08-18T20:25:15.178Z,19.03
2022-08-18T20:27:42.977Z,20.03
2022-08-18T20:30:21.824Z,19.40
2022-08-18T20:33:15.135Z,20.77
2022-08-18T20:36:19.663Z,19.47
2022-08-18T20:38:51.494Z,19.20
2022-08-18T20:41:28.643Z,19.33
2022-08-18T20:44:28.882Z,17.53
2022-08-18T20:47:21.316Z,19.33
2022-08-18T20:50:20.245Z,18.70
2022-08-18T20:53:01.222Z,19.63
2022-08-18T20:55:38.442Z,22.23
2022-08-18T20:58:14.641Z,20.17
2022-08-18T21:00:44.767Z,17.97
2022-08-18T21:03:15.660Z,19.43
2022-08-18T21:05:45.908Z,18.70
2022-08-18T21:08:19.829Z,17.67
2022-08-18T21:10:59.830Z,17.07
2022-08-18T21:13:57.213Z,16.90
2022-08-18T21:16:37.846Z,18.07
2022-08-18T21:19:17.901Z,17.17
2022-08-18T21:22:00.157Z,16.17
2022-08-18T21:24:44.932Z,18.77
2022-08-18T21:27:20.609Z,16.73
2022-08-18T21:29:49.310Z,19.27
2022-08-18T21:32:24.320Z,20.07
2022-08-18T21:34:51.087Z,19.60
2022-08-18T21:37:18.621Z,19.03
2022-08-18T21:39:49.569Z,18.40
2022-08-18T21:42:23.029Z,18.57
2022-08-18T21:44:54.598Z,19.27
2022-08-18T21:47:26.140Z,18.83
2022-08-18T21:50:11.261Z,17.97
2022-08-18T21:52:51.771Z,19.17
2022-08-18T21:55:30.364Z,21.23
2022-08-18T21:58:08.525Z,20.03
2022-08-18T22:00:44.319Z,18.97
2022-08-18T22:03:25.862Z,17.90
2022-08-18T22:06:00.713Z,17.57
2022-08-18T22:08:30.985Z,17.53
2022-08-18T22:11:36.387Z,17.20
2022-08-18T22:14:30.118Z,16.20
2022-08-18T22:17:28.723Z,18.63
2022-08-18T22:19:55.472Z,16.80
2022-08-18T22:22:41.260Z,17.70
2022-08-18T22:25:11.834Z,16.73
2022-08-18T22:27:38.368Z,17.07
2022-08-18T22:30:05.469Z,16.73
2022-08-18T22:32:34.593Z,18.00
2022-08-18T22:35:02.106Z,15.33
2022-08-18T22:37:32.540Z,17.53
2022-08-18T22:40:10.286Z,18.43
2022-08-18T22:42:37.280Z,19.17
2022-08-18T22:45:08.602Z,19.03
2022-08-18T22:47:43.697Z,24.27
2022-08-18T22:50:12.707Z,19.13
2022-08-18T22:52:46.446Z,18.07
2022-08-18T22:55:14.884Z,23.07
2022-08-18T22:57:46.910Z,17.80
2022-08-18T23:00:17.454Z,20.03
2022-08-18T23:02:47.725Z,17.67
2022-08-18T23:05:14.851Z,19.40
2022-08-18T23:07:42.586Z,21.70
2022-08-18T23:10:13.940Z,20.47
2022-08-18T23:12:43.061Z,21.10
2022-08-18T23:15:11.355Z,16.17
2022-08-18T23:17:39.017Z,19.27
2022-08-18T23:20:11.355Z,17.10
2022-08-18T23:22:38.741Z,19.63
2022-08-18T23:25:09.123Z,22.27
2022-08-18T23:27:36.541Z,19.23
2022-08-18T23:30:04.207Z,19.60
2022-08-18T23:32:31.970Z,20.30
2022-08-18T23:34:58.980Z,21.13
2022-08-18T23:37:25.447Z,19.10
2022-08-18T23:39:52.046Z,20.17
2022-08-18T23:42:18.601Z,21.23
2022-08-18T23:44:49.752Z,19.20
2022-08-18T23:47:18.544Z,18.77
2022-08-18T23:49:45.052Z,17.57
2022-08-18T23:52:11.545Z,19.37
2022-08-18T23:54:38.113Z,19.53
2022-08-18T23:57:04.794Z,20.17
2022-08-18T23:59:31.373Z,18.97
